createdAt,value
2023-02-27T00:16:34.468Z,7.90
2023-02-27T00:52:00.614Z,8.00
2023-02-27T01:13:46.386Z,7.00
2023-02-27T01:35:32.155Z,6.80
2023-02-27T01:57:17.955Z,7.10
2023-02-27T02:19:20.641Z,6.50
2023-02-27T02:41:12.337Z,5.80
2023-02-27T03:03:05.361Z,5.10
2023-02-27T03:24:55.016Z,5.50
2023-02-27T03:46:42.391Z,4.70
2023-02-27T04:08:42.160Z,5.20
2023-02-27T04:30:36.801Z,5.20
2023-02-27T04:52:29.948Z,5.40
2023-02-27T05:14:21.689Z,5.70
2023-02-27T05:36:12.908Z,5.50
2023-02-27T05:58:03.499Z,5.90
2023-02-27T06:19:49.628Z,5.20
2023-02-27T06:41:35.424Z,4.80
2023-02-27T07:03:21.288Z,5.20
2023-02-27T07:25:09.478Z,5.00
2023-02-27T07:46:56.165Z,4.90
2023-02-27T08:08:42.304Z,4.80
2023-02-27T08:30:28.006Z,4.80
2023-02-27T08:52:13.841Z,4.50
2023-02-27T09:14:00.030Z,4.10
2023-02-27T09:35:45.984Z,3.90
2023-02-27T09:57:43.928Z,4.10
2023-02-27T10:19:35.413Z,4.70
2023-02-27T10:41:23.664Z,3.50
2023-02-27T11:03:18.148Z,4.00
2023-02-27T11:25:25.846Z,3.30
2023-02-27T11:47:17.848Z,2.90
2023-02-27T12:09:07.476Z,2.60
2023-02-27T12:31:06.392Z,4.10
2023-02-27T12:53:03.623Z,3.30
2023-02-27T13:14:56.425Z,2.60
2023-02-27T13:36:46.230Z,2.60
2023-02-27T13:58:31.956Z,5.10
2023-02-27T14:20:53.224Z,6.20
2023-02-27T14:42:53.606Z,6.20
2023-02-27T15:04:39.653Z,3.60
2023-02-27T15:26:26.196Z,4.20
2023-02-27T15:48:16.873Z,5.30
2023-02-27T16:10:10.827Z,4.70
2023-02-27T16:31:58.121Z,4.40
2023-02-27T16:53:44.090Z,6.80
2023-02-27T17:15:29.962Z,7.00
2023-02-27T17:37:15.693Z,7.60
2023-02-27T17:59:01.679Z,7.60
2023-02-27T18:20:47.764Z,8.20
2023-02-27T18:42:33.501Z,8.90
2023-02-27T19:26:03.694Z,11.50
2023-02-27T19:47:49.364Z,10.50
2023-02-27T20:09:35.203Z,12.40
2023-02-27T20:53:08.006Z,13.70
2023-02-27T21:36:42.370Z,15.10
2023-02-27T21:58:28.271Z,17.10
2023-02-27T22:41:59.786Z,15.90
2023-02-27T23:25:30.475Z,13.00
